East Waterboro, ME

2:37 AM EDT on April 28, 2015 (GMT -0400)
Skyhaven | | Change Station
CLOSE
Current Station
Airport
Location: Rochester,
Elevation: 322 ft
Nearby Weather Stations

Elev 322 ft 43.28 °N, 70.92 °W | Updated 46 minutes ago

Overcast
Overcast
44 °F
Feels Like 40 °F
N
8
Wind Variable Wind from NNE
Gusts 17 mph

Today
High -- | Low -- °F
--% Chance of Precip.
Yesterday
High -- | Low -- °F
Precip. -- in
5:40 AM 7:41 PM
Waxing Gibbous, 71% visible
Pressure 29.65 in
Visibility 10.0 miles
Clouds Scattered Clouds 3900 ft
Mostly Cloudy 4700 ft
Overcast 8000 ft
Windchill 40 °F
Dew Point 39 °F
Humidity 82%
Rainfall 0.03 in
Snow Depth Not available.
UV 0 out of 12
Pollen 7.80 out of 12
Air Quality Not available.
Flu Activity Regional
METAR KDAW 280551Z AUTO 02007G15KT 10SM SCT039 BKN047 OVC080 07/04 A2965 RMK AO2 RAE10 SLP040 P0000 60003 T00670039 10106 20067 53012

More Conditions Fewer Conditions

Pressure 29.65 in
Visibility 10.0 miles
Clouds Scattered Clouds 3900 ft
Mostly Cloudy 4700 ft
Overcast 8000 ft
Windchill 40 °F
Dew Point 39 °F
Humidity 82%
Rainfall 0.03 in
Snow Depth Not available.
UV 0 out of 12
Pollen 7.80 out of 12
Air Quality Not available.
Flu Activity Regional
METAR KDAW 280551Z AUTO 02007G15KT 10SM SCT039 BKN047 OVC080 07/04 A2965 RMK AO2 RAE10 SLP040 P0000 60003 T00670039 10106 20067 53012

More Conditions Fewer Conditions

10-Day Weather Forecast

Almanac

Astronomy

Apr. 28, 2015 Rise Set
Actual Time
Civil Twilight
Nautical Twilight
Astronomical Twilight
Moon
Length of Visible Light
Length of Day
Tomorrow will be .
, % of the Moon is Illuminated

Today's Extremes

State Highs State Lows

Community

WunderPhotos

Upload Photos

1,817,591 photos uploaded!

WunderBlogs® & News

Nearby

Air Quality

  Air Quality AQ Index Pollutant
Not available.

Snow Depth

Station Depth Elevation

Earthquake Activity

City Distance Mag. Time & Date
Minimum magnitude displayed is 2.5.

Coastal Water Temperatures

Place Temperature

Stations

Nearby Weather Stations

Station Location Temp. Windchill Dew Point Humidity Wind Precip. Elev Updated Type